createdAt,value
2023-04-11T00:01:36.984Z,8.43
2023-04-11T00:04:45.615Z,8.93
2023-04-11T00:07:51.074Z,8.58
2023-04-11T00:10:58.233Z,9.05
2023-04-11T00:14:06.030Z,8.63
2023-04-11T00:17:13.105Z,8.53
2023-04-11T00:20:20.493Z,8.23
2023-04-11T00:23:26.015Z,8.43
2023-04-11T00:26:31.539Z,8.05
2023-04-11T00:29:40.950Z,8.35
2023-04-11T00:32:46.846Z,8.30
2023-04-11T00:35:54.741Z,8.03
2023-04-11T00:39:01.451Z,7.95
2023-04-11T00:42:01.273Z,7.65
2023-04-11T00:44:59.737Z,7.78
2023-04-11T00:48:05.831Z,8.30
2023-04-11T00:51:11.278Z,6.67
2023-04-11T00:54:18.849Z,8.03
2023-04-11T00:57:25.772Z,7.45
2023-04-11T01:00:31.282Z,7.58
2023-04-11T01:03:37.508Z,7.35
2023-04-11T01:06:43.984Z,7.37
2023-04-11T01:09:50.373Z,7.67
2023-04-11T01:12:56.518Z,7.50
2023-04-11T01:16:02.267Z,7.90
2023-04-11T01:19:07.617Z,7.95
2023-04-11T01:22:13.133Z,6.97
2023-04-11T01:25:19.784Z,6.87
2023-04-11T01:28:24.608Z,7.03
2023-04-11T01:31:31.351Z,7.08
2023-04-11T01:34:36.547Z,7.70
2023-04-11T01:37:42.665Z,7.17
2023-04-11T01:40:47.987Z,7.25
2023-04-11T01:43:54.787Z,6.87
2023-04-11T01:47:01.270Z,7.37
2023-04-11T01:50:02.088Z,6.62
2023-04-11T01:53:08.893Z,7.50
2023-04-11T01:56:14.998Z,7.08
2023-04-11T01:59:21.070Z,6.90
2023-04-11T02:02:27.025Z,7.08
2023-04-11T02:05:33.017Z,6.92
2023-04-11T02:08:39.691Z,7.37
2023-04-11T02:11:46.511Z,6.37
2023-04-11T02:14:59.730Z,6.58
2023-04-11T02:18:07.110Z,7.45
2023-04-11T02:21:13.258Z,6.58
2023-04-11T02:24:20.999Z,6.92
2023-04-11T02:27:27.910Z,6.10
2023-04-11T02:30:33.670Z,6.45
2023-04-11T02:33:40.918Z,6.22
2023-04-11T02:36:45.681Z,6.30
2023-04-11T02:39:43.255Z,6.45
2023-04-11T02:42:36.999Z,6.87
2023-04-11T02:45:43.091Z,7.45
2023-04-11T02:48:48.754Z,6.65
2023-04-11T02:51:47.720Z,7.53
2023-04-11T02:54:34.207Z,7.12
2023-04-11T02:57:27.051Z,6.30
2023-04-11T03:00:14.001Z,6.95
2023-04-11T03:03:09.682Z,6.40
2023-04-11T03:05:57.546Z,7.00
2023-04-11T03:09:00.166Z,6.47
2023-04-11T03:12:06.767Z,6.47
2023-04-11T03:15:15.387Z,6.12
2023-04-11T03:18:23.000Z,6.33
2023-04-11T03:21:28.811Z,6.75
2023-04-11T03:24:34.592Z,6.60
2023-04-11T03:27:41.229Z,6.83
2023-04-11T03:30:48.529Z,7.03
2023-04-11T03:33:54.927Z,6.53
2023-04-11T03:37:00.974Z,6.80
2023-04-11T03:40:09.082Z,6.40
2023-04-11T03:43:16.949Z,6.30
2023-04-11T03:46:23.744Z,7.72
2023-04-11T03:49:29.480Z,7.20
2023-04-11T03:52:35.671Z,6.75
2023-04-11T03:55:42.841Z,6.95
2023-04-11T03:58:50.317Z,6.75
2023-04-11T04:01:58.205Z,6.15
2023-04-11T04:05:07.256Z,6.25
2023-04-11T04:08:14.444Z,5.97
2023-04-11T04:11:20.652Z,6.97
2023-04-11T04:14:27.760Z,6.03
2023-04-11T04:17:32.631Z,6.80
2023-04-11T04:20:39.837Z,7.00
2023-04-11T04:23:39.428Z,6.62
2023-04-11T04:26:38.339Z,7.83
2023-04-11T04:29:46.554Z,7.28
2023-04-11T04:32:54.856Z,6.85
2023-04-11T04:36:04.829Z,6.37
2023-04-11T04:39:12.588Z,6.15
2023-04-11T04:42:22.122Z,6.22
2023-04-11T04:45:18.402Z,6.20
2023-04-11T04:48:24.333Z,6.80
2023-04-11T04:51:30.652Z,6.55
2023-04-11T04:54:38.449Z,6.97
2023-04-11T04:57:45.077Z,6.47
2023-04-11T05:00:51.992Z,6.15
2023-04-11T05:04:03.214Z,6.22
2023-04-11T05:07:11.563Z,6.42
2023-04-11T05:10:20.752Z,7.05
2023-04-11T05:13:26.161Z,5.67
2023-04-11T05:16:33.311Z,6.65
2023-04-11T05:19:40.988Z,5.47
2023-04-11T05:22:46.579Z,5.83
2023-04-11T05:25:51.978Z,5.87
2023-04-11T05:28:58.436Z,6.03
2023-04-11T05:32:05.894Z,5.78
2023-04-11T05:35:11.770Z,6.37
2023-04-11T05:38:12.529Z,5.33
2023-04-11T05:41:12.823Z,6.55
2023-04-11T05:44:18.180Z,5.60
2023-04-11T05:47:23.912Z,5.47
2023-04-11T05:50:29.581Z,5.65
2023-04-11T05:53:35.598Z,5.50
2023-04-11T05:56:42.573Z,5.35
2023-04-11T05:59:50.389Z,6.22
2023-04-11T06:02:57.652Z,5.62
2023-04-11T06:06:03.741Z,5.28
2023-04-11T06:09:10.404Z,5.42
2023-04-11T06:12:17.302Z,5.42
2023-04-11T06:15:25.150Z,5.08
2023-04-11T06:18:31.833Z,5.30
2023-04-11T06:21:39.330Z,5.60
2023-04-11T06:24:53.112Z,4.87
2023-04-11T06:27:59.269Z,5.15
2023-04-11T06:31:06.093Z,4.72
2023-04-11T06:34:12.545Z,5.40
2023-04-11T06:37:19.225Z,4.65
2023-04-11T06:40:27.770Z,5.00
2023-04-11T06:43:33.805Z,4.70
2023-04-11T06:46:39.633Z,5.53
2023-04-11T06:49:45.692Z,4.75
2023-04-11T06:52:51.804Z,4.87
2023-04-11T06:56:03.285Z,4.55
2023-04-11T06:59:04.039Z,5.70
2023-04-11T07:02:10.023Z,4.95
2023-04-11T07:05:18.932Z,4.40
2023-04-11T07:08:24.636Z,5.42
2023-04-11T07:11:30.415Z,4.87
2023-04-11T07:14:36.769Z,4.75
2023-04-11T07:17:42.975Z,4.67
2023-04-11T07:20:49.282Z,4.75
2023-04-11T07:23:48.072Z,4.50
2023-04-11T07:26:44.349Z,4.62
2023-04-11T07:29:42.326Z,4.45
2023-04-11T07:32:42.142Z,4.43
2023-04-11T07:35:48.359Z,5.42
2023-04-11T07:38:54.596Z,4.28
2023-04-11T07:42:00.806Z,4.65
2023-04-11T07:45:07.802Z,5.12
2023-04-11T07:48:14.627Z,4.50
2023-04-11T07:51:20.478Z,4.92
2023-04-11T07:54:26.893Z,5.05
2023-04-11T07:57:32.706Z,4.85
2023-04-11T08:00:40.637Z,4.50
2023-04-11T08:03:48.153Z,4.58
2023-04-11T08:06:54.515Z,3.98
2023-04-11T08:10:00.186Z,4.50
2023-04-11T08:13:08.112Z,4.50
2023-04-11T08:16:15.353Z,4.37
2023-04-11T08:19:15.826Z,3.95
2023-04-11T08:22:22.239Z,4.10
2023-04-11T08:25:29.544Z,3.40
2023-04-11T08:28:35.063Z,4.08
2023-04-11T08:31:40.556Z,4.22
2023-04-11T08:34:48.901Z,3.92
2023-04-11T08:37:49.724Z,4.10
2023-04-11T08:40:56.669Z,3.87
2023-04-11T08:44:01.633Z,4.08
2023-04-11T08:47:06.756Z,4.08
2023-04-11T08:50:12.086Z,4.05
2023-04-11T08:53:19.035Z,3.70
2023-04-11T08:56:25.115Z,4.00
2023-04-11T08:59:32.078Z,3.67
2023-04-11T09:02:37.861Z,3.55
2023-04-11T09:05:47.921Z,4.55
2023-04-11T09:08:55.358Z,4.85
2023-04-11T09:12:10.104Z,5.15
2023-04-11T09:15:20.961Z,4.12
2023-04-11T09:18:28.405Z,4.75
2023-04-11T09:21:37.072Z,3.55
2023-04-11T09:24:43.668Z,4.03
2023-04-11T09:27:49.513Z,4.10
2023-04-11T09:30:59.742Z,4.37
2023-04-11T09:34:09.919Z,4.58
2023-04-11T09:37:15.875Z,3.92
2023-04-11T09:40:21.845Z,4.62
2023-04-11T09:43:27.296Z,4.22
2023-04-11T09:46:32.773Z,4.12
2023-04-11T09:49:41.616Z,4.15
2023-04-11T09:52:47.348Z,4.75
2023-04-11T09:55:54.040Z,3.70
2023-04-11T09:59:14.928Z,4.28
2023-04-11T10:02:22.200Z,4.20
2023-04-11T10:05:28.273Z,4.62
2023-04-11T10:08:43.949Z,4.17
2023-04-11T10:11:49.558Z,4.28
2023-04-11T10:14:56.500Z,4.70
2023-04-11T10:18:26.253Z,4.03
2023-04-11T10:21:50.329Z,3.67
2023-04-11T10:24:55.138Z,3.72
2023-04-11T10:28:10.492Z,4.28
2023-04-11T10:31:25.692Z,3.85
2023-04-11T10:34:31.843Z,4.20
2023-04-11T10:37:50.241Z,3.80
2023-04-11T10:41:17.383Z,3.27
2023-04-11T10:44:35.777Z,3.55
2023-04-11T10:47:41.542Z,3.70
2023-04-11T10:50:43.063Z,3.98
2023-04-11T10:53:50.492Z,4.20
2023-04-11T10:57:07.836Z,4.12
2023-04-11T11:00:15.581Z,3.95
2023-04-11T11:03:30.021Z,3.62
2023-04-11T11:06:46.781Z,4.12
2023-04-11T11:09:44.565Z,3.90
2023-04-11T11:12:51.790Z,3.20
2023-04-11T11:16:04.202Z,3.52
2023-04-11T11:19:13.119Z,3.98
2023-04-11T11:22:18.898Z,4.05
2023-04-11T11:25:25.580Z,4.25
2023-04-11T11:28:31.858Z,4.17
2023-04-11T11:31:37.522Z,3.37
2023-04-11T11:34:48.568Z,3.95
2023-04-11T11:37:54.753Z,3.92
2023-04-11T11:41:02.421Z,3.87
2023-04-11T11:44:08.708Z,3.80
2023-04-11T11:47:16.919Z,3.92
2023-04-11T11:50:24.163Z,3.30
2023-04-11T11:53:30.626Z,4.42
2023-04-11T11:56:36.271Z,3.65
2023-04-11T11:59:42.943Z,3.30
2023-04-11T12:02:52.580Z,3.52
2023-04-11T12:06:00.553Z,3.47
2023-04-11T12:09:06.292Z,4.17
2023-04-11T12:12:11.773Z,3.47
2023-04-11T12:15:27.740Z,3.65
2023-04-11T12:18:27.882Z,4.12
2023-04-11T12:21:34.683Z,3.22
2023-04-11T12:24:33.855Z,3.30
2023-04-11T12:27:43.294Z,3.62
2023-04-11T12:30:49.110Z,3.67
2023-04-11T12:33:55.450Z,3.22
2023-04-11T12:37:02.053Z,5.53
2023-04-11T12:40:08.774Z,3.20
2023-04-11T12:43:15.163Z,3.55
2023-04-11T12:46:21.896Z,3.50
2023-04-11T12:49:27.386Z,3.65
2023-04-11T12:52:33.883Z,3.85
2023-04-11T12:55:40.347Z,4.30
2023-04-11T12:58:46.629Z,3.40
2023-04-11T13:01:53.745Z,4.15
2023-04-11T13:05:02.481Z,4.40
2023-04-11T13:08:07.926Z,3.70
2023-04-11T13:11:14.257Z,4.12
2023-04-11T13:14:20.666Z,3.55
2023-04-11T13:17:27.225Z,3.20
2023-04-11T13:20:34.136Z,3.12
2023-04-11T13:23:40.071Z,3.10
2023-04-11T13:26:46.988Z,3.25
2023-04-11T13:29:52.789Z,3.67
2023-04-11T13:33:00.056Z,3.62
2023-04-11T13:36:06.542Z,2.85
2023-04-11T13:39:12.993Z,3.17
2023-04-11T13:42:19.585Z,3.02
2023-04-11T13:45:26.444Z,3.00
2023-04-11T13:48:33.135Z,3.02
2023-04-11T13:51:39.916Z,3.60
2023-04-11T13:54:45.885Z,3.02
2023-04-11T13:57:50.633Z,2.87
2023-04-11T14:00:59.416Z,3.20
2023-04-11T14:04:05.745Z,2.90
2023-04-11T14:07:13.053Z,3.65
2023-04-11T14:10:18.732Z,3.05
2023-04-11T14:13:24.586Z,3.45
2023-04-11T14:16:31.373Z,3.55
2023-04-11T14:19:36.703Z,3.87
2023-04-11T14:22:42.464Z,3.30
2023-04-11T14:25:49.549Z,3.25
2023-04-11T14:28:55.410Z,2.90
2023-04-11T14:32:00.071Z,3.45
2023-04-11T14:35:02.287Z,3.75
2023-04-11T14:37:49.721Z,3.45
2023-04-11T14:40:41.312Z,3.77
2023-04-11T14:43:47.118Z,3.33
2023-04-11T14:46:52.925Z,3.08
2023-04-11T14:49:59.048Z,4.05
2023-04-11T14:53:05.298Z,3.17
2023-04-11T14:56:10.430Z,3.27
2023-04-11T14:59:18.691Z,2.92
2023-04-11T15:02:25.473Z,3.85
2023-04-11T15:05:32.197Z,2.95
2023-04-11T15:08:38.984Z,3.40
2023-04-11T15:11:37.453Z,2.98
2023-04-11T15:14:44.015Z,3.85
2023-04-11T15:18:02.732Z,3.08
2023-04-11T15:21:09.950Z,3.33
2023-04-11T15:24:15.486Z,3.00
2023-04-11T15:27:20.974Z,3.20
2023-04-11T15:30:27.546Z,2.77
2023-04-11T15:33:33.300Z,2.95
2023-04-11T15:36:39.447Z,2.95
2023-04-11T15:39:44.824Z,3.25
2023-04-11T15:42:50.470Z,3.40
2023-04-11T15:45:56.854Z,2.90
2023-04-11T15:48:56.063Z,3.30
2023-04-11T15:51:55.344Z,3.20
2023-04-11T15:55:00.637Z,3.33
2023-04-11T15:58:07.334Z,3.70
2023-04-11T16:01:14.121Z,3.17
2023-04-11T16:04:19.699Z,3.40
2023-04-11T16:07:29.794Z,3.65
2023-04-11T16:10:36.618Z,4.05
2023-04-11T16:13:43.881Z,3.62
2023-04-11T16:16:50.661Z,4.87
2023-04-11T16:19:57.050Z,4.30
2023-04-11T16:23:02.837Z,3.83
2023-04-11T16:26:09.537Z,4.00
2023-04-11T16:29:15.191Z,4.17
2023-04-11T16:32:20.832Z,3.98
2023-04-11T16:35:26.491Z,8.03
2023-04-11T16:38:33.434Z,5.90
2023-04-11T16:41:40.557Z,4.58
2023-04-11T16:44:47.075Z,4.70
2023-04-11T16:47:53.538Z,5.20
2023-04-11T16:51:00.691Z,5.20
2023-04-11T16:54:06.840Z,6.17
2023-04-11T16:57:06.477Z,16.17
2023-04-11T16:59:54.068Z,6.90
2023-04-11T17:02:47.337Z,6.15
2023-04-11T17:05:52.343Z,4.58
2023-04-11T17:08:58.406Z,5.17
2023-04-11T17:12:04.902Z,5.15
2023-04-11T17:15:13.660Z,4.78
2023-04-11T17:18:20.313Z,4.58
2023-04-11T17:21:26.807Z,4.85
2023-04-11T17:24:34.263Z,4.55
2023-04-11T17:27:40.099Z,5.33
2023-04-11T17:30:46.147Z,4.10
2023-04-11T17:33:52.110Z,4.50
2023-04-11T17:36:57.770Z,4.70
2023-04-11T17:40:03.001Z,6.22
2023-04-11T17:43:09.902Z,5.65
2023-04-11T17:46:08.428Z,4.72
2023-04-11T17:49:01.439Z,5.50
2023-04-11T17:52:07.590Z,5.20
2023-04-11T17:55:14.477Z,4.00
2023-04-11T17:58:19.843Z,4.58
2023-04-11T18:01:26.044Z,5.33
2023-04-11T18:04:32.952Z,10.15
2023-04-11T18:07:39.290Z,4.90
2023-04-11T18:10:44.844Z,4.70
2023-04-11T18:13:50.737Z,5.12
2023-04-11T18:16:56.126Z,4.62
2023-04-11T18:20:01.781Z,4.10
2023-04-11T18:23:08.896Z,5.60
2023-04-11T18:26:14.626Z,17.45
2023-04-11T18:29:14.192Z,4.97
2023-04-11T18:32:22.212Z,4.75
2023-04-11T18:35:28.084Z,4.67
2023-04-11T18:38:33.877Z,4.87
2023-04-11T18:41:40.717Z,4.53
2023-04-11T18:44:48.287Z,5.08
2023-04-11T18:47:54.177Z,4.65
2023-04-11T18:51:00.689Z,15.95
2023-04-11T18:54:07.480Z,5.35
2023-04-11T18:57:14.842Z,4.80
2023-04-11T19:00:22.470Z,4.08
2023-04-11T19:03:32.680Z,4.33
2023-04-11T19:06:39.159Z,4.83
2023-04-11T19:09:47.136Z,6.03
2023-04-11T19:12:54.706Z,8.20
2023-04-11T19:16:01.404Z,4.87
2023-04-11T19:19:08.257Z,4.75
2023-04-11T19:22:12.701Z,5.03
2023-04-11T19:25:18.555Z,5.35
2023-04-11T19:28:24.984Z,4.80
2023-04-11T19:31:25.273Z,5.17
2023-04-11T19:37:37.182Z,19.50
2023-04-11T19:40:43.615Z,6.35
2023-04-11T19:43:51.279Z,6.42
2023-04-11T19:46:56.787Z,6.95
2023-04-11T19:50:03.389Z,7.20
2023-04-11T19:53:10.094Z,5.87
2023-04-11T19:56:18.180Z,5.75
2023-04-11T19:59:24.221Z,5.97
2023-04-11T20:02:29.473Z,11.95
2023-04-11T20:05:37.949Z,7.47
2023-04-11T20:08:38.256Z,7.70
2023-04-11T20:11:46.009Z,5.85
2023-04-11T20:14:51.538Z,7.30
2023-04-11T20:17:58.352Z,7.78
2023-04-11T20:21:04.205Z,7.30
2023-04-11T20:24:10.774Z,6.92
2023-04-11T20:27:16.866Z,7.92
2023-04-11T20:30:24.496Z,8.75
2023-04-11T20:33:24.643Z,8.35
2023-04-11T20:36:29.981Z,7.83
2023-04-11T20:39:35.938Z,6.50
2023-04-11T20:42:45.432Z,5.92
2023-04-11T20:45:53.621Z,5.47
2023-04-11T20:52:05.154Z,6.70
2023-04-11T20:55:11.335Z,6.33
2023-04-11T20:58:10.893Z,7.60
2023-04-11T21:01:03.723Z,5.97
2023-04-11T21:04:12.162Z,6.17
2023-04-11T21:07:18.866Z,6.95
2023-04-11T21:10:26.925Z,6.62
2023-04-11T21:13:32.609Z,7.62
2023-04-11T21:16:38.213Z,6.37
2023-04-11T21:19:44.582Z,6.00
2023-04-11T21:22:50.232Z,7.30
2023-04-11T21:25:55.793Z,7.40
2023-04-11T21:29:01.623Z,6.45
2023-04-11T21:32:08.860Z,7.35
2023-04-11T21:35:13.673Z,7.17
2023-04-11T21:38:19.569Z,7.20
2023-04-11T21:41:26.047Z,7.42
2023-04-11T21:44:32.448Z,7.80
2023-04-11T21:47:38.178Z,7.80
2023-04-11T21:50:43.744Z,7.25
2023-04-11T21:53:43.065Z,8.05
2023-04-11T21:56:35.152Z,8.15
2023-04-11T21:59:41.348Z,7.62
2023-04-11T22:02:47.809Z,7.45
2023-04-11T22:05:56.095Z,7.87
2023-04-11T22:09:04.863Z,8.23
2023-04-11T22:12:10.880Z,7.78
2023-04-11T22:15:19.288Z,7.37
2023-04-11T22:18:28.916Z,7.80
2023-04-11T22:21:35.321Z,7.60
2023-04-11T22:24:40.843Z,8.10
2023-04-11T22:27:47.083Z,8.35
2023-04-11T22:30:53.668Z,8.83
2023-04-11T22:33:59.109Z,7.50
2023-04-11T22:37:05.160Z,8.75
2023-04-11T22:40:12.853Z,9.05
2023-04-11T22:43:18.471Z,8.88
2023-04-11T22:46:24.473Z,8.95
2023-04-11T22:49:30.763Z,9.53
2023-04-11T22:52:37.272Z,9.20
2023-04-11T22:55:46.972Z,9.03
2023-04-11T22:58:52.950Z,9.63
2023-04-11T23:01:59.710Z,9.35
2023-04-11T23:05:06.389Z,8.68
2023-04-11T23:08:12.757Z,10.35
2023-04-11T23:11:18.409Z,10.68
2023-04-11T23:14:25.304Z,11.08
2023-04-11T23:17:32.114Z,10.93
2023-04-11T23:20:38.660Z,11.00
2023-04-11T23:23:44.846Z,11.65
2023-04-11T23:26:50.000Z,12.30
2023-04-11T23:29:56.567Z,12.25
2023-04-11T23:33:03.404Z,11.43
2023-04-11T23:36:10.646Z,12.18
2023-04-11T23:39:16.339Z,12.30
2023-04-11T23:42:22.034Z,11.83
2023-04-11T23:45:29.865Z,11.48
2023-04-11T23:48:36.703Z,11.05
2023-04-11T23:51:42.693Z,9.98
2023-04-11T23:54:48.698Z,10.48
2023-04-11T23:57:54.774Z,9.83
